createdAt,value
2022-09-26T00:02:28.901Z,99363.50
2022-09-26T00:04:56.454Z,99365.25
2022-09-26T00:07:23.726Z,99346.53
2022-09-26T00:09:51.165Z,99344.75
2022-09-26T00:12:20.455Z,99333.91
2022-09-26T00:14:47.679Z,99342.06
2022-09-26T00:17:14.984Z,99335.00
2022-09-26T00:19:42.619Z,99327.47
2022-09-26T00:22:09.734Z,99336.47
2022-09-26T00:24:37.109Z,99343.41
2022-09-26T00:27:04.782Z,99326.88
2022-09-26T00:29:33.418Z,99333.19
2022-09-26T00:32:00.930Z,99334.78
2022-09-26T00:34:28.486Z,99327.94
2022-09-26T00:36:55.651Z,99325.00
2022-09-26T00:39:26.179Z,99319.84
2022-09-26T00:41:53.835Z,99322.88
2022-09-26T00:44:46.442Z,99310.97
2022-09-26T00:47:41.114Z,99311.97
2022-09-26T00:50:14.182Z,99314.91
2022-09-26T00:52:46.680Z,99302.72
2022-09-26T00:55:18.145Z,99304.63
2022-09-26T00:57:51.406Z,99300.38
2022-09-26T01:00:20.847Z,99305.56
2022-09-26T01:02:48.975Z,99304.81
2022-09-26T01:05:19.006Z,99304.94
2022-09-26T01:07:47.000Z,99302.09
2022-09-26T01:10:14.670Z,99301.13
2022-09-26T01:12:42.743Z,99299.13
2022-09-26T01:15:11.040Z,99292.22
2022-09-26T01:17:43.129Z,99301.50
2022-09-26T01:20:33.467Z,99296.72
2022-09-26T01:23:43.762Z,99284.63
2022-09-26T01:26:56.223Z,99285.31
2022-09-26T01:29:54.926Z,99278.38
2022-09-26T01:32:33.923Z,99271.53
2022-09-26T01:35:09.412Z,99266.97
2022-09-26T01:37:46.349Z,99275.91
2022-09-26T01:40:21.739Z,99270.28
2022-09-26T01:43:00.037Z,99275.94
2022-09-26T01:45:30.247Z,99266.34
2022-09-26T01:48:05.603Z,99266.50
2022-09-26T01:50:38.307Z,99260.19
2022-09-26T01:53:10.367Z,99265.41
2022-09-26T01:55:41.084Z,99263.94
2022-09-26T01:58:14.209Z,99256.88
2022-09-26T02:00:44.486Z,99264.00
2022-09-26T02:03:17.424Z,99259.34
2022-09-26T02:05:49.972Z,99271.00
2022-09-26T02:08:23.030Z,99267.28
2022-09-26T02:10:55.815Z,99260.84
2022-09-26T02:13:26.714Z,99252.56
2022-09-26T02:16:02.718Z,99260.84
2022-09-26T02:18:35.956Z,99261.81
2022-09-26T02:21:09.483Z,99265.00
2022-09-26T02:23:36.719Z,99269.50
2022-09-26T02:26:03.956Z,99265.91
2022-09-26T02:28:31.655Z,99255.09
2022-09-26T02:30:59.797Z,99261.47
2022-09-26T02:33:28.054Z,99253.13
2022-09-26T02:35:57.194Z,99251.31
2022-09-26T02:38:29.081Z,99257.81
2022-09-26T02:41:01.559Z,99253.00
2022-09-26T02:43:43.154Z,99259.88
2022-09-26T02:46:33.756Z,99255.34
2022-09-26T02:49:17.134Z,99247.28
2022-09-26T02:52:06.928Z,99248.91
2022-09-26T02:54:43.587Z,99251.78
2022-09-26T02:57:21.303Z,99252.63
2022-09-26T02:59:57.174Z,99248.28
2022-09-26T03:02:31.709Z,99252.81
2022-09-26T03:05:03.378Z,99248.78
2022-09-26T03:07:37.806Z,99245.28
2022-09-26T03:10:09.092Z,99246.88
2022-09-26T03:12:38.416Z,99247.13
2022-09-26T03:15:07.631Z,99248.16
2022-09-26T03:17:38.099Z,99236.72
2022-09-26T03:20:09.777Z,99248.00
2022-09-26T03:22:39.040Z,99238.31
2022-09-26T03:25:09.330Z,99241.81
2022-09-26T03:27:39.130Z,99239.25
2022-09-26T03:30:07.299Z,99235.94
2022-09-26T03:32:34.985Z,99216.94
2022-09-26T03:35:02.323Z,99225.63
2022-09-26T03:37:29.715Z,99227.03
2022-09-26T03:39:58.693Z,99219.69
2022-09-26T03:42:25.905Z,99217.22
2022-09-26T03:44:53.185Z,99209.66
2022-09-26T03:47:20.767Z,99212.22
2022-09-26T03:49:48.196Z,99217.00
2022-09-26T03:52:15.493Z,99214.13
2022-09-26T03:54:43.142Z,99219.38
2022-09-26T03:57:13.609Z,99220.56
2022-09-26T03:59:40.926Z,99216.69
2022-09-26T04:02:09.200Z,99227.13
2022-09-26T04:04:36.557Z,99219.84
2022-09-26T04:07:04.546Z,99221.25
2022-09-26T04:09:32.409Z,99212.25
2022-09-26T04:11:59.773Z,99212.28
2022-09-26T04:14:28.457Z,99216.84
2022-09-26T04:16:56.252Z,99206.41
2022-09-26T04:19:23.691Z,99194.41
2022-09-26T04:21:51.130Z,99198.47
2022-09-26T04:24:18.807Z,99189.56
2022-09-26T04:26:46.197Z,99194.47
2022-09-26T04:29:14.282Z,99195.13
2022-09-26T04:31:43.842Z,99198.53
2022-09-26T04:34:11.813Z,99187.16
2022-09-26T04:36:39.236Z,99187.22
2022-09-26T04:39:07.021Z,99188.56
2022-09-26T04:41:34.453Z,99185.84
2022-09-26T04:44:01.991Z,99181.81
2022-09-26T04:46:31.146Z,99180.97
2022-09-26T04:49:01.088Z,99178.50
2022-09-26T04:51:30.375Z,99175.13
2022-09-26T04:53:58.649Z,99183.84
2022-09-26T04:56:27.677Z,99178.38
2022-09-26T04:58:56.637Z,99179.16
2022-09-26T05:01:24.790Z,99174.25
2022-09-26T05:03:52.192Z,99175.88
2022-09-26T05:06:20.978Z,99179.94
2022-09-26T05:08:48.893Z,99180.09
2022-09-26T05:11:17.973Z,99185.13
2022-09-26T05:13:50.071Z,99176.50
2022-09-26T05:16:20.437Z,99180.44
2022-09-26T05:18:49.950Z,99183.72
2022-09-26T05:21:17.214Z,99182.44
2022-09-26T05:23:45.921Z,99187.28
2022-09-26T05:26:19.728Z,99187.75
2022-09-26T05:28:48.791Z,99186.69
2022-09-26T05:31:17.085Z,99182.66
2022-09-26T05:33:44.518Z,99179.53
2022-09-26T05:36:12.933Z,99182.44
2022-09-26T05:38:40.188Z,99188.50
2022-09-26T05:41:08.727Z,99183.25
2022-09-26T05:43:36.326Z,99179.59
2022-09-26T05:46:05.277Z,99182.66
2022-09-26T05:48:33.902Z,99179.13
2022-09-26T05:51:06.338Z,99179.28
2022-09-26T05:53:33.755Z,99181.81
2022-09-26T05:56:01.474Z,99183.75
2022-09-26T05:58:31.468Z,99178.16
2022-09-26T06:01:04.492Z,99183.34
2022-09-26T06:03:32.201Z,99187.94
2022-09-26T06:06:01.907Z,99193.13
2022-09-26T06:08:29.441Z,99189.38
2022-09-26T06:10:59.850Z,99192.75
2022-09-26T06:13:27.092Z,99195.44
2022-09-26T06:15:55.920Z,99193.19
2022-09-26T06:18:23.600Z,99188.09
2022-09-26T06:20:51.001Z,99192.00
2022-09-26T06:23:18.607Z,99196.78
2022-09-26T06:25:46.199Z,99199.50
2022-09-26T06:28:14.217Z,99203.22
2022-09-26T06:30:41.423Z,99203.41
2022-09-26T06:33:10.458Z,99215.19
2022-09-26T06:35:37.895Z,99216.03
2022-09-26T06:38:05.018Z,99210.25
2022-09-26T06:40:33.257Z,99210.72
2022-09-26T06:43:00.894Z,99211.13
2022-09-26T06:45:28.374Z,99219.03
2022-09-26T06:48:00.337Z,99207.19
2022-09-26T06:50:28.974Z,99200.34
2022-09-26T06:52:56.526Z,99205.97
2022-09-26T06:55:23.830Z,99209.34
2022-09-26T06:57:51.778Z,99202.50
2022-09-26T07:00:19.187Z,99212.03
2022-09-26T07:02:50.395Z,99210.38
2022-09-26T07:05:18.231Z,99210.59
2022-09-26T07:07:47.107Z,99219.28
2022-09-26T07:10:17.078Z,99216.59
2022-09-26T07:12:45.101Z,99209.78
2022-09-26T07:15:13.411Z,99210.16
2022-09-26T07:17:42.154Z,99208.72
2022-09-26T07:20:11.169Z,99207.69
2022-09-26T07:22:38.457Z,99205.00
2022-09-26T07:25:08.507Z,99209.78
2022-09-26T07:27:35.808Z,99214.75
2022-09-26T07:30:04.900Z,99208.72
2022-09-26T07:32:32.428Z,99206.84
2022-09-26T07:34:59.773Z,99211.41
2022-09-26T07:37:27.927Z,99216.81
2022-09-26T07:39:59.352Z,99218.06
2022-09-26T07:42:30.805Z,99217.00
2022-09-26T07:47:45.571Z,99211.19
2022-09-26T07:50:12.827Z,99211.00
2022-09-26T07:52:40.439Z,99207.44
2022-09-26T07:55:09.580Z,99214.91
2022-09-26T07:57:38.314Z,99201.59
2022-09-26T08:00:07.703Z,99210.31
2022-09-26T08:02:36.098Z,99218.41
2022-09-26T08:05:04.765Z,99212.13
2022-09-26T08:07:34.056Z,99206.09
2022-09-26T08:10:01.687Z,99204.63
2022-09-26T08:12:34.359Z,99203.97
2022-09-26T08:15:04.189Z,99209.94
2022-09-26T08:17:32.519Z,99212.53
2022-09-26T08:20:00.123Z,99212.44
2022-09-26T08:22:27.764Z,99213.59
2022-09-26T08:24:55.987Z,99210.41
2022-09-26T08:27:23.556Z,99204.47
2022-09-26T08:29:50.853Z,99201.78
2022-09-26T08:32:21.118Z,99205.19
2022-09-26T08:34:48.509Z,99200.53
2022-09-26T08:37:15.758Z,99203.28
2022-09-26T08:39:43.312Z,99205.75
2022-09-26T08:42:26.111Z,99204.19
2022-09-26T08:45:23.673Z,99199.56
2022-09-26T08:48:00.856Z,99200.81
2022-09-26T08:50:37.871Z,99202.72
2022-09-26T08:53:10.083Z,99199.41
2022-09-26T08:55:43.194Z,99201.81
2022-09-26T08:58:18.794Z,99199.56
2022-09-26T09:00:51.030Z,99204.34
2022-09-26T09:03:28.341Z,99197.28
2022-09-26T09:06:02.009Z,99200.97
2022-09-26T09:08:36.204Z,99195.16
2022-09-26T09:11:13.716Z,99193.81
2022-09-26T09:13:57.252Z,99201.63
2022-09-26T09:16:37.241Z,99190.81
2022-09-26T09:19:18.948Z,99193.31
2022-09-26T09:22:02.389Z,99198.50
2022-09-26T09:24:49.009Z,99204.19
2022-09-26T09:30:19.695Z,99194.94
2022-09-26T09:32:52.753Z,99196.44
2022-09-26T09:35:29.704Z,99191.75
2022-09-26T09:37:58.148Z,99192.50
2022-09-26T09:40:29.505Z,99200.28
2022-09-26T09:43:03.013Z,99204.75
2022-09-26T09:45:43.506Z,99202.50
2022-09-26T09:48:12.288Z,99212.19
2022-09-26T09:50:50.805Z,99210.22
2022-09-26T09:53:35.923Z,99210.28
2022-09-26T09:56:13.494Z,99207.66
2022-09-26T09:58:59.300Z,99207.94
2022-09-26T10:01:31.985Z,99212.84
2022-09-26T10:04:05.440Z,99215.47
2022-09-26T10:06:46.553Z,99219.91
2022-09-26T10:09:36.052Z,99214.34
2022-09-26T10:12:13.871Z,99209.56
2022-09-26T10:14:46.132Z,99215.78
2022-09-26T10:17:15.951Z,99215.41
2022-09-26T10:19:43.227Z,99219.09
2022-09-26T10:22:17.526Z,99220.34
2022-09-26T10:24:47.677Z,99224.94
2022-09-26T10:27:17.974Z,99227.19
2022-09-26T10:29:46.642Z,99229.31
2022-09-26T10:32:17.847Z,99224.47
2022-09-26T10:35:04.140Z,99224.03
2022-09-26T10:37:36.883Z,99220.84
2022-09-26T10:40:22.853Z,99224.81
2022-09-26T10:42:50.459Z,99228.84
2022-09-26T10:45:20.226Z,99223.28
2022-09-26T10:47:50.636Z,99220.16
2022-09-26T10:50:21.732Z,99218.56
2022-09-26T10:52:55.912Z,99206.72
2022-09-26T10:55:29.488Z,99207.06
2022-09-26T10:58:00.156Z,99202.84
2022-09-26T11:00:37.540Z,99201.47
2022-09-26T11:03:07.461Z,99193.78
2022-09-26T11:05:36.304Z,99195.28
2022-09-26T11:08:06.811Z,99195.00
2022-09-26T11:10:35.208Z,99198.22
2022-09-26T11:13:14.895Z,99195.31
2022-09-26T11:15:52.669Z,99203.66
2022-09-26T11:18:26.924Z,99201.19
2022-09-26T11:21:03.887Z,99202.34
2022-09-26T11:23:41.525Z,99211.38
2022-09-26T11:26:14.521Z,99206.06
2022-09-26T11:28:47.211Z,99197.84
2022-09-26T11:31:28.784Z,99202.06
2022-09-26T11:33:59.563Z,99196.59
2022-09-26T11:36:49.267Z,99194.22
2022-09-26T11:39:32.458Z,99194.34
2022-09-26T11:42:12.234Z,99193.34
2022-09-26T11:44:55.670Z,99185.47
2022-09-26T11:48:00.126Z,99190.66
2022-09-26T11:50:37.762Z,99186.25
2022-09-26T11:53:19.991Z,99187.91
2022-09-26T11:56:04.106Z,99193.16
2022-09-26T11:58:41.554Z,99174.63
2022-09-26T12:01:20.190Z,99176.47
2022-09-26T12:04:09.414Z,99181.69
2022-09-26T12:06:46.616Z,99176.25
2022-09-26T12:09:33.504Z,99170.69
2022-09-26T12:12:13.100Z,99160.25
2022-09-26T12:14:52.938Z,99166.22
2022-09-26T12:17:28.219Z,99169.06
2022-09-26T12:20:03.139Z,99170.13
2022-09-26T12:22:37.734Z,99162.69
2022-09-26T12:25:26.540Z,99163.41
2022-09-26T12:28:07.751Z,99168.72
2022-09-26T12:30:40.274Z,99161.38
2022-09-26T12:33:41.666Z,99161.28
2022-09-26T12:36:20.050Z,99163.81
2022-09-26T12:39:04.423Z,99158.38
2022-09-26T12:42:05.197Z,99152.75
2022-09-26T12:44:53.559Z,99157.38
2022-09-26T12:47:58.185Z,99156.66
2022-09-26T12:50:39.774Z,99156.59
2022-09-26T12:53:37.044Z,99153.88
2022-09-26T12:56:08.695Z,99155.28
2022-09-26T12:58:52.551Z,99159.47
2022-09-26T13:01:40.954Z,99156.25
2022-09-26T13:04:37.449Z,99153.56
2022-09-26T13:07:21.007Z,99150.59
2022-09-26T13:10:11.491Z,99141.53
2022-09-26T13:12:58.542Z,99144.16
2022-09-26T13:15:30.048Z,99136.34
2022-09-26T13:18:03.252Z,99135.28
2022-09-26T13:20:37.342Z,99142.50
2022-09-26T13:27:16.255Z,99130.06
2022-09-26T13:29:49.133Z,99132.97
2022-09-26T13:32:20.952Z,99134.41
2022-09-26T13:34:57.168Z,99137.47
2022-09-26T13:37:38.836Z,99133.09
2022-09-26T13:40:21.817Z,99138.06
2022-09-26T13:42:58.306Z,99126.94
2022-09-26T13:45:37.949Z,99123.56
2022-09-26T13:48:10.601Z,99116.81
2022-09-26T13:50:45.282Z,99118.81
2022-09-26T13:53:21.917Z,99119.53
2022-09-26T13:56:23.249Z,99115.06
2022-09-26T13:59:03.422Z,99114.69
2022-09-26T14:01:31.209Z,99114.03
2022-09-26T14:04:17.338Z,99107.47
2022-09-26T14:07:13.041Z,99102.72
2022-09-26T14:09:52.619Z,99104.59
2022-09-26T14:12:33.048Z,99107.41
2022-09-26T14:15:22.166Z,99092.44
2022-09-26T14:18:12.425Z,99103.78
2022-09-26T14:21:05.071Z,99106.50
2022-09-26T14:23:43.292Z,99095.78
2022-09-26T14:26:19.162Z,99097.53
2022-09-26T14:28:51.266Z,99092.59
2022-09-26T14:31:40.293Z,99089.09
2022-09-26T14:34:20.211Z,99078.31
2022-09-26T14:36:48.608Z,99078.84
2022-09-26T14:39:30.258Z,99071.63
2022-09-26T14:41:58.310Z,99076.88
2022-09-26T14:44:32.592Z,99066.88
2022-09-26T14:47:06.872Z,99061.25
2022-09-26T14:49:34.896Z,99062.09
2022-09-26T14:52:03.784Z,99069.81
2022-09-26T14:54:39.133Z,99066.25
2022-09-26T14:57:20.904Z,99066.66
2022-09-26T14:59:48.836Z,99059.19
2022-09-26T15:02:30.112Z,99062.00
2022-09-26T15:05:32.836Z,99062.47
2022-09-26T15:08:01.918Z,99054.56
2022-09-26T15:10:39.307Z,99049.22
2022-09-26T15:13:27.025Z,99044.66
2022-09-26T15:16:10.691Z,99035.41
2022-09-26T15:18:40.899Z,99035.63
2022-09-26T15:21:19.987Z,99027.09
2022-09-26T15:23:50.327Z,99029.94
2022-09-26T15:26:23.533Z,99031.53
2022-09-26T15:28:53.142Z,99027.94
2022-09-26T15:31:26.344Z,99017.53
2022-09-26T15:34:00.712Z,99015.56
2022-09-26T15:36:30.281Z,99030.88
2022-09-26T15:38:58.493Z,99023.09
2022-09-26T15:41:27.218Z,99020.75
2022-09-26T15:44:00.936Z,99014.59
2022-09-26T15:46:28.643Z,99014.84
2022-09-26T15:48:55.977Z,99012.34
2022-09-26T15:51:27.777Z,99016.63
2022-09-26T15:53:59.020Z,99007.09
2022-09-26T15:56:32.897Z,99011.84
2022-09-26T15:59:06.953Z,99012.38
2022-09-26T16:01:41.040Z,99008.16
2022-09-26T16:04:19.132Z,99017.47
2022-09-26T16:06:55.750Z,99016.41
2022-09-26T16:09:29.557Z,99018.88
2022-09-26T16:12:00.725Z,99014.69
2022-09-26T16:14:35.586Z,99013.22
2022-09-26T16:17:18.099Z,99008.28
2022-09-26T16:19:47.766Z,99006.88
2022-09-26T16:22:30.218Z,99007.94
2022-09-26T16:25:17.480Z,99014.84
2022-09-26T16:27:47.752Z,99013.13
2022-09-26T16:30:42.321Z,99002.94
2022-09-26T16:33:28.331Z,99007.13
2022-09-26T16:36:02.134Z,99006.34
2022-09-26T16:38:32.608Z,99015.00
2022-09-26T16:41:04.554Z,99009.84
2022-09-26T16:43:34.769Z,99011.00
2022-09-26T16:46:06.083Z,99004.97
2022-09-26T16:48:40.065Z,99011.16
2022-09-26T16:51:18.077Z,99007.09
2022-09-26T16:53:47.565Z,99013.94
2022-09-26T16:56:17.585Z,99006.84
2022-09-26T16:58:50.129Z,99007.03
2022-09-26T17:01:17.624Z,99004.09
2022-09-26T17:03:45.194Z,99008.91
2022-09-26T17:06:13.002Z,99009.16
2022-09-26T17:08:40.621Z,99007.81
2022-09-26T17:11:15.200Z,99004.69
2022-09-26T17:13:43.180Z,99007.47
2022-09-26T17:16:13.081Z,99006.63
2022-09-26T17:18:40.690Z,99002.47
2022-09-26T17:21:09.240Z,98991.22
2022-09-26T17:23:42.038Z,98996.16
2022-09-26T17:26:18.178Z,98995.34
2022-09-26T17:28:45.982Z,99000.81
2022-09-26T17:31:17.849Z,99003.09
2022-09-26T17:33:47.411Z,99001.03
2022-09-26T17:36:20.185Z,98995.44
2022-09-26T17:38:47.785Z,98996.03
2022-09-26T17:41:16.187Z,98986.63
2022-09-26T17:43:43.950Z,98995.16
2022-09-26T17:46:15.394Z,98997.47
2022-09-26T17:48:45.017Z,99004.09
2022-09-26T17:51:12.739Z,98999.97
2022-09-26T17:53:46.222Z,98997.53
2022-09-26T17:56:17.305Z,98995.63
2022-09-26T17:58:45.363Z,98998.72
2022-09-26T18:01:21.678Z,99002.19
2022-09-26T18:03:55.207Z,98999.75
2022-09-26T18:06:24.885Z,98997.53
2022-09-26T18:08:52.714Z,98995.25
2022-09-26T18:11:20.063Z,98995.91
2022-09-26T18:13:51.906Z,98995.50
2022-09-26T18:16:19.627Z,98990.31
2022-09-26T18:18:47.137Z,98987.84
2022-09-26T18:21:17.578Z,98978.50
2022-09-26T18:23:49.909Z,98977.06
2022-09-26T18:26:26.422Z,98969.81
2022-09-26T18:28:55.213Z,98976.59
2022-09-26T18:31:26.826Z,98973.47
2022-09-26T18:33:55.201Z,98971.59
2022-09-26T18:36:24.935Z,98977.19
2022-09-26T18:38:52.579Z,98969.72
2022-09-26T18:41:22.847Z,98974.28
2022-09-26T18:43:50.686Z,98975.28
2022-09-26T18:46:18.400Z,98980.41
2022-09-26T18:48:46.765Z,98970.47
2022-09-26T18:51:14.386Z,98971.34
2022-09-26T18:53:43.455Z,98970.69
2022-09-26T18:56:11.827Z,98973.97
2022-09-26T18:58:39.203Z,98965.22
2022-09-26T19:01:11.433Z,98963.53
2022-09-26T19:03:41.498Z,98964.16
2022-09-26T19:06:10.576Z,98958.72
2022-09-26T19:08:39.844Z,98949.03
2022-09-26T19:11:13.769Z,98951.69
2022-09-26T19:13:41.613Z,98947.16
2022-09-26T19:16:09.816Z,98944.72
2022-09-26T19:18:37.353Z,98949.25
2022-09-26T19:21:08.278Z,98954.66
2022-09-26T19:23:37.037Z,98945.13
2022-09-26T19:26:06.068Z,98947.81
2022-09-26T19:28:36.408Z,98947.56
2022-09-26T19:31:04.584Z,98955.59
2022-09-26T19:33:32.486Z,98955.09
2022-09-26T19:35:59.869Z,98952.22
2022-09-26T19:38:27.566Z,98953.69
2022-09-26T19:40:55.131Z,98952.25
2022-09-26T19:43:23.055Z,98945.66
2022-09-26T19:45:54.435Z,98951.03
2022-09-26T19:48:23.483Z,98952.13
2022-09-26T19:50:51.896Z,98941.16
2022-09-26T19:53:21.317Z,98941.78
2022-09-26T19:55:49.058Z,98945.06
2022-09-26T19:58:18.650Z,98947.34
2022-09-26T20:00:50.439Z,98943.00
2022-09-26T20:03:21.422Z,98945.28
2022-09-26T20:05:50.426Z,98942.38
2022-09-26T20:08:20.288Z,98940.31
2022-09-26T20:10:48.187Z,98938.03
2022-09-26T20:13:16.301Z,98933.25
2022-09-26T20:15:44.809Z,98933.06
2022-09-26T20:18:15.856Z,98933.41
2022-09-26T20:20:52.280Z,98934.19
2022-09-26T20:23:22.088Z,98924.78
2022-09-26T20:25:51.862Z,98921.91
2022-09-26T20:28:19.491Z,98919.75
2022-09-26T20:30:46.931Z,98916.81
2022-09-26T20:33:14.638Z,98920.94
2022-09-26T20:35:46.728Z,98920.84
2022-09-26T20:38:21.577Z,98907.69
2022-09-26T20:40:49.220Z,98910.88
2022-09-26T20:43:25.247Z,98908.63
2022-09-26T20:45:53.004Z,98918.56
2022-09-26T20:48:23.947Z,98913.09
2022-09-26T20:50:52.776Z,98905.34
2022-09-26T20:53:22.271Z,98901.69
2022-09-26T20:55:51.042Z,98906.84
2022-09-26T20:58:18.360Z,98905.19
2022-09-26T21:00:46.193Z,98901.00
2022-09-26T21:03:15.772Z,98894.25
2022-09-26T21:05:43.327Z,98888.22
2022-09-26T21:08:22.531Z,98886.47
2022-09-26T21:10:49.780Z,98885.91
2022-09-26T21:13:17.363Z,98882.22
2022-09-26T21:15:44.688Z,98882.06
2022-09-26T21:18:22.237Z,98875.78
2022-09-26T21:20:51.254Z,98881.19
2022-09-26T21:23:21.223Z,98872.09
2022-09-26T21:25:48.714Z,98874.63
2022-09-26T21:28:23.451Z,98871.56
2022-09-26T21:30:51.125Z,98873.88
2022-09-26T21:33:19.188Z,98868.88
2022-09-26T21:35:46.989Z,98864.56
2022-09-26T21:38:14.180Z,98866.03
2022-09-26T21:40:44.525Z,98868.34
2022-09-26T21:43:15.240Z,98857.19
2022-09-26T21:45:44.805Z,98865.69
2022-09-26T21:48:12.574Z,98861.13
2022-09-26T21:50:45.557Z,98855.97
2022-09-26T21:53:17.268Z,98854.31
2022-09-26T21:55:51.676Z,98849.72
2022-09-26T21:58:23.008Z,98848.09
2022-09-26T22:00:50.170Z,98845.16
2022-09-26T22:03:17.973Z,98850.13
2022-09-26T22:05:45.637Z,98842.09
2022-09-26T22:08:13.083Z,98841.47
2022-09-26T22:10:40.344Z,98840.66
2022-09-26T22:13:09.389Z,98834.00
2022-09-26T22:15:36.662Z,98828.84
2022-09-26T22:18:04.154Z,98823.47
2022-09-26T22:20:31.695Z,98821.19
2022-09-26T22:22:58.952Z,98820.56
2022-09-26T22:25:26.401Z,98813.53
2022-09-26T22:27:54.133Z,98814.97
2022-09-26T22:30:23.211Z,98813.94
2022-09-26T22:32:50.655Z,98815.81
2022-09-26T22:38:03.202Z,98815.56
2022-09-26T22:40:30.948Z,98814.31
2022-09-26T22:42:58.173Z,98814.94
2022-09-26T22:45:27.258Z,98804.19
2022-09-26T22:47:54.829Z,98797.75
2022-09-26T22:50:22.136Z,98790.72
2022-09-26T22:52:49.310Z,98792.16
2022-09-26T22:55:17.258Z,98780.59
2022-09-26T22:57:44.650Z,98776.28
2022-09-26T23:00:12.708Z,98775.66
2022-09-26T23:02:41.877Z,98774.44
2022-09-26T23:05:09.439Z,98761.63
2022-09-26T23:07:36.773Z,98768.03
2022-09-26T23:10:04.811Z,98763.69
2022-09-26T23:12:32.165Z,98770.72
2022-09-26T23:14:59.391Z,98757.72
2022-09-26T23:17:26.855Z,98758.13
2022-09-26T23:19:55.691Z,98752.34
2022-09-26T23:22:22.900Z,98748.59
2022-09-26T23:24:50.429Z,98742.41
2022-09-26T23:27:17.647Z,98737.84
2022-09-26T23:29:44.892Z,98736.41
2022-09-26T23:32:12.529Z,98741.59
2022-09-26T23:34:43.068Z,98740.13
2022-09-26T23:37:11.698Z,98731.03
2022-09-26T23:39:39.542Z,98737.88
2022-09-26T23:42:06.902Z,98732.88
2022-09-26T23:44:34.256Z,98733.94
2022-09-26T23:47:02.502Z,98753.38
2022-09-26T23:49:29.791Z,98759.97
2022-09-26T23:51:56.983Z,98763.91
2022-09-26T23:54:26.102Z,98752.50
2022-09-26T23:56:53.287Z,98744.59
2022-09-26T23:59:20.510Z,98762.81
